createdAt,value
2023-05-06T00:02:39.363Z,11.94
2023-05-06T00:05:42.861Z,11.88
2023-05-06T00:08:46.536Z,11.80
2023-05-06T00:11:49.383Z,11.75
2023-05-06T00:14:52.133Z,11.76
2023-05-06T00:17:55.818Z,11.70
2023-05-06T00:20:58.525Z,11.71
2023-05-06T00:24:01.281Z,11.71
2023-05-06T00:27:04.114Z,11.56
2023-05-06T00:30:07.328Z,11.67
2023-05-06T00:33:10.036Z,11.65
2023-05-06T00:36:12.818Z,11.67
2023-05-06T00:39:16.643Z,11.53
2023-05-06T00:42:19.415Z,11.45
2023-05-06T00:45:22.208Z,11.38
2023-05-06T00:48:25.144Z,11.29
2023-05-06T00:51:28.174Z,11.26
2023-05-06T00:54:31.333Z,11.28
2023-05-06T00:57:34.010Z,11.27
2023-05-06T01:00:36.725Z,11.25
2023-05-06T01:03:40.172Z,11.17
2023-05-06T01:06:48.492Z,11.14
2023-05-06T01:09:56.749Z,11.09
2023-05-06T01:13:22.053Z,11.14
2023-05-06T01:16:27.190Z,11.15
2023-05-06T01:19:39.187Z,11.10
2023-05-06T01:22:41.874Z,11.02
2023-05-06T01:25:44.803Z,11.10
2023-05-06T01:28:47.447Z,11.16
2023-05-06T01:31:51.011Z,11.23
2023-05-06T01:35:09.084Z,11.20
2023-05-06T01:38:47.240Z,11.20
2023-05-06T01:41:50.605Z,11.18
2023-05-06T01:44:58.037Z,11.06
2023-05-06T01:48:00.883Z,11.01
2023-05-06T01:51:03.806Z,10.90
2023-05-06T01:54:06.712Z,10.86
2023-05-06T01:57:09.681Z,10.90
2023-05-06T02:00:12.706Z,10.85
2023-05-06T02:03:15.533Z,10.85
2023-05-06T02:06:18.769Z,10.92
2023-05-06T02:09:21.394Z,11.01
2023-05-06T02:12:30.807Z,11.06
2023-05-06T02:15:33.521Z,10.96
2023-05-06T02:18:36.395Z,11.00
2023-05-06T02:21:39.074Z,10.89
2023-05-06T02:24:41.686Z,10.73
2023-05-06T02:27:45.393Z,10.68
2023-05-06T02:30:48.245Z,10.60
2023-05-06T02:33:51.063Z,10.63
2023-05-06T02:36:53.731Z,10.60
2023-05-06T02:39:57.997Z,10.60
2023-05-06T02:43:00.810Z,10.63
2023-05-06T02:46:03.951Z,10.62
2023-05-06T02:49:06.924Z,10.54
2023-05-06T02:52:09.640Z,10.43
2023-05-06T02:55:12.332Z,10.38
2023-05-06T02:58:15.737Z,10.46
2023-05-06T03:01:18.600Z,10.47
2023-05-06T03:04:22.019Z,10.50
2023-05-06T03:07:24.927Z,10.70
2023-05-06T03:10:27.758Z,10.71
2023-05-06T03:13:32.127Z,10.53
2023-05-06T03:16:35.250Z,10.62
2023-05-06T03:19:38.302Z,10.73
2023-05-06T03:22:43.779Z,10.81
2023-05-06T03:25:46.664Z,10.82
2023-05-06T03:28:50.544Z,10.71
2023-05-06T03:31:56.805Z,10.73
2023-05-06T03:35:01.854Z,10.85
2023-05-06T03:38:04.996Z,10.88
2023-05-06T03:41:15.769Z,10.92
2023-05-06T03:44:18.568Z,10.91
2023-05-06T03:47:21.959Z,10.94
2023-05-06T03:50:25.242Z,10.97
2023-05-06T03:53:30.462Z,11.05
2023-05-06T03:56:33.651Z,11.15
2023-05-06T03:59:36.682Z,11.16
2023-05-06T04:02:42.873Z,11.20
2023-05-06T04:05:51.018Z,11.21
2023-05-06T04:08:57.752Z,11.21
2023-05-06T04:12:03.936Z,11.26
2023-05-06T04:15:07.886Z,11.31
2023-05-06T04:18:11.296Z,11.39
2023-05-06T04:21:18.707Z,11.41
2023-05-06T04:24:31.669Z,11.51
2023-05-06T04:27:36.082Z,11.51
2023-05-06T04:30:41.637Z,11.80
2023-05-06T04:33:45.037Z,12.40
2023-05-06T04:36:54.598Z,12.67
2023-05-06T04:40:06.630Z,12.88
2023-05-06T04:43:13.193Z,13.05
2023-05-06T04:46:17.505Z,13.23
2023-05-06T04:49:22.206Z,13.37
2023-05-06T04:52:26.968Z,13.61
2023-05-06T04:55:30.306Z,13.75
2023-05-06T04:58:33.273Z,14.22
2023-05-06T05:01:39.163Z,14.56
2023-05-06T05:04:41.987Z,14.94
2023-05-06T05:07:45.902Z,15.31
2023-05-06T05:10:49.287Z,15.59
2023-05-06T05:13:57.720Z,15.72
2023-05-06T05:17:02.158Z,15.73
2023-05-06T05:20:06.093Z,15.92
2023-05-06T05:23:08.912Z,15.82
2023-05-06T05:26:12.017Z,15.90
2023-05-06T05:29:16.928Z,15.98
2023-05-06T05:32:22.078Z,16.27
2023-05-06T05:35:25.172Z,15.75
2023-05-06T05:38:29.458Z,15.38
2023-05-06T05:41:32.452Z,15.49
2023-05-06T05:44:38.544Z,15.60
2023-05-06T05:47:42.312Z,15.31
2023-05-06T05:50:47.408Z,15.66
2023-05-06T05:53:53.720Z,15.82
2023-05-06T05:56:59.361Z,15.56
2023-05-06T06:00:04.778Z,15.60
2023-05-06T06:03:09.035Z,15.33
2023-05-06T06:06:12.122Z,15.66
2023-05-06T06:09:17.202Z,15.50
2023-05-06T06:12:20.852Z,15.77
2023-05-06T06:15:23.706Z,15.70
2023-05-06T06:18:28.580Z,15.50
2023-05-06T06:21:31.524Z,15.41
2023-05-06T06:24:35.447Z,15.29
2023-05-06T06:27:38.415Z,15.02
2023-05-06T06:30:42.424Z,15.03
2023-05-06T06:33:45.529Z,15.10
2023-05-06T06:36:48.349Z,14.94
2023-05-06T06:39:51.260Z,15.16
2023-05-06T06:42:54.204Z,15.18
2023-05-06T06:46:16.074Z,15.10
2023-05-06T06:49:19.006Z,15.01
2023-05-06T06:52:21.919Z,15.09
2023-05-06T06:55:24.768Z,15.11
2023-05-06T06:58:27.425Z,15.07
2023-05-06T07:01:30.495Z,15.04
2023-05-06T07:04:36.145Z,15.10
2023-05-06T07:07:38.993Z,15.23
2023-05-06T07:10:42.141Z,15.29
2023-05-06T07:13:44.994Z,15.26
2023-05-06T07:16:50.078Z,15.33
2023-05-06T07:19:54.283Z,15.25
2023-05-06T07:22:57.140Z,15.56
2023-05-06T07:26:00.314Z,15.25
2023-05-06T07:29:04.592Z,15.40
2023-05-06T07:32:07.368Z,15.32
2023-05-06T07:35:10.418Z,15.32
2023-05-06T07:38:13.648Z,15.59
2023-05-06T07:41:16.693Z,15.68
2023-05-06T07:44:19.498Z,15.60
2023-05-06T07:47:32.795Z,15.83
2023-05-06T07:50:36.090Z,15.51
2023-05-06T07:53:40.590Z,15.34
2023-05-06T07:56:44.278Z,15.25
2023-05-06T07:59:51.570Z,15.32
2023-05-06T08:02:57.147Z,15.50
2023-05-06T08:06:00.671Z,15.70
2023-05-06T08:09:03.745Z,15.38
2023-05-06T08:12:06.733Z,15.40
2023-05-06T08:15:10.433Z,15.65
2023-05-06T08:18:21.909Z,15.51
2023-05-06T08:21:26.004Z,15.62
2023-05-06T08:24:28.929Z,15.81
2023-05-06T08:27:31.903Z,15.39
2023-05-06T08:30:34.973Z,15.42
2023-05-06T08:33:37.797Z,15.61
2023-05-06T08:36:40.459Z,15.79
2023-05-06T08:39:43.152Z,15.75
2023-05-06T08:42:47.392Z,15.72
2023-05-06T08:45:50.430Z,15.64
2023-05-06T08:48:53.351Z,15.65
2023-05-06T08:51:57.215Z,15.58
2023-05-06T08:55:02.369Z,15.66
2023-05-06T08:58:07.564Z,15.52
2023-05-06T09:01:10.665Z,15.65
2023-05-06T09:04:13.751Z,15.83
2023-05-06T09:07:16.504Z,15.93
2023-05-06T09:10:19.312Z,16.14
2023-05-06T09:13:22.325Z,15.98
2023-05-06T09:16:34.334Z,16.20
2023-05-06T09:19:38.804Z,16.20
2023-05-06T09:22:41.799Z,16.00
2023-05-06T09:25:46.536Z,16.18
2023-05-06T09:28:49.233Z,16.00
2023-05-06T09:31:54.444Z,16.05
2023-05-06T09:34:57.584Z,16.06
2023-05-06T09:38:00.234Z,16.30
2023-05-06T09:41:05.048Z,16.49
2023-05-06T09:44:07.797Z,16.14
2023-05-06T09:47:11.230Z,16.17
2023-05-06T09:50:14.328Z,16.20
2023-05-06T09:53:18.323Z,16.49
2023-05-06T09:56:21.884Z,16.73
2023-05-06T09:59:25.461Z,16.51
2023-05-06T10:02:29.249Z,16.34
2023-05-06T10:05:32.972Z,16.34
2023-05-06T10:08:36.748Z,16.11
2023-05-06T10:11:40.160Z,16.37
2023-05-06T10:14:43.158Z,16.03
2023-05-06T10:17:48.706Z,16.01
2023-05-06T10:20:54.089Z,16.48
2023-05-06T10:24:09.734Z,16.47
2023-05-06T10:27:13.204Z,16.55
2023-05-06T10:30:19.878Z,16.44
2023-05-06T10:33:24.023Z,16.66
2023-05-06T10:36:29.127Z,16.70
2023-05-06T10:39:31.983Z,16.81
2023-05-06T10:42:35.844Z,16.92
2023-05-06T10:45:59.274Z,16.71
2023-05-06T10:49:05.941Z,16.84
2023-05-06T10:52:15.588Z,16.38
2023-05-06T10:55:33.751Z,16.25
2023-05-06T10:58:36.844Z,16.26
2023-05-06T11:01:43.985Z,16.46
2023-05-06T11:05:00.493Z,16.11
2023-05-06T11:08:11.081Z,16.42
2023-05-06T11:11:47.839Z,16.75
2023-05-06T11:14:50.729Z,16.74
2023-05-06T11:17:57.338Z,16.59
2023-05-06T11:21:03.754Z,16.04
2023-05-06T11:24:07.149Z,15.93
2023-05-06T11:27:11.155Z,16.17
2023-05-06T11:30:15.260Z,16.63
2023-05-06T11:33:22.420Z,16.58
2023-05-06T11:36:25.363Z,16.81
2023-05-06T11:39:36.661Z,17.33
2023-05-06T11:42:42.427Z,17.60
2023-05-06T11:45:46.931Z,18.07
2023-05-06T11:48:50.784Z,18.77
2023-05-06T11:51:54.716Z,19.21
2023-05-06T11:54:57.508Z,19.66
2023-05-06T11:58:00.533Z,19.38
2023-05-06T12:01:04.727Z,19.33
2023-05-06T12:04:07.720Z,19.46
2023-05-06T12:07:13.286Z,20.22
2023-05-06T12:10:17.517Z,19.56
2023-05-06T12:13:20.785Z,19.80
2023-05-06T12:16:25.158Z,20.33
2023-05-06T12:19:30.669Z,19.68
2023-05-06T12:22:33.697Z,20.02
2023-05-06T12:25:36.752Z,20.05
2023-05-06T12:28:42.911Z,20.40
2023-05-06T12:31:49.892Z,20.78
2023-05-06T12:34:52.931Z,21.37
2023-05-06T12:37:57.219Z,20.89
2023-05-06T12:41:00.380Z,20.28
2023-05-06T12:44:03.589Z,20.73
2023-05-06T12:47:08.571Z,21.61
2023-05-06T12:50:12.083Z,21.42
2023-05-06T12:53:31.639Z,19.81
2023-05-06T12:56:35.650Z,19.77
2023-05-06T12:59:38.753Z,20.06
2023-05-06T13:02:41.894Z,19.53
2023-05-06T13:05:45.046Z,19.65
2023-05-06T13:08:47.772Z,20.04
2023-05-06T13:11:51.401Z,20.17
2023-05-06T13:14:54.298Z,21.25
2023-05-06T13:17:57.618Z,21.57
2023-05-06T13:21:00.991Z,21.17
2023-05-06T13:24:04.465Z,20.09
2023-05-06T13:27:07.420Z,20.58
2023-05-06T13:30:10.765Z,19.96
2023-05-06T13:33:13.753Z,20.22
2023-05-06T13:36:16.696Z,20.17
2023-05-06T13:39:20.187Z,20.29
2023-05-06T13:42:23.016Z,20.78
2023-05-06T13:45:26.302Z,20.50
2023-05-06T13:48:29.005Z,20.39
2023-05-06T13:51:33.841Z,20.47
2023-05-06T13:54:36.718Z,20.49
2023-05-06T13:57:39.733Z,21.67
2023-05-06T14:00:42.424Z,21.30
2023-05-06T14:03:45.174Z,21.53
2023-05-06T14:06:47.935Z,21.38
2023-05-06T14:09:50.563Z,21.32
2023-05-06T14:12:53.994Z,21.24
2023-05-06T14:15:56.999Z,20.98
2023-05-06T14:19:02.548Z,20.58
2023-05-06T14:22:05.408Z,20.52
2023-05-06T14:25:11.662Z,20.44
2023-05-06T14:28:15.999Z,20.21
2023-05-06T14:31:18.873Z,20.22
2023-05-06T14:34:21.811Z,20.25
2023-05-06T14:37:24.938Z,19.86
2023-05-06T14:40:28.131Z,19.57
2023-05-06T14:43:31.090Z,19.40
2023-05-06T14:46:33.872Z,19.30
2023-05-06T14:49:36.653Z,19.13
2023-05-06T14:52:40.487Z,18.96
2023-05-06T14:55:43.266Z,18.69
2023-05-06T14:58:46.813Z,18.46
2023-05-06T15:01:49.637Z,18.06
2023-05-06T15:04:54.910Z,17.76
2023-05-06T15:07:57.705Z,17.92
2023-05-06T15:11:03.060Z,17.78
2023-05-06T15:14:06.995Z,17.62
2023-05-06T15:17:10.021Z,17.48
2023-05-06T15:20:13.850Z,17.55
2023-05-06T15:23:16.849Z,17.38
2023-05-06T15:26:19.639Z,17.65
2023-05-06T15:29:22.749Z,17.98
2023-05-06T15:32:25.809Z,17.98
2023-05-06T15:35:28.790Z,17.95
2023-05-06T15:39:00.082Z,18.08
2023-05-06T15:42:03.338Z,18.12
2023-05-06T15:45:07.333Z,18.20
2023-05-06T15:48:10.316Z,18.69
2023-05-06T15:51:13.278Z,18.94
2023-05-06T15:54:19.998Z,19.02
2023-05-06T15:57:23.389Z,18.97
2023-05-06T16:00:26.512Z,19.21
2023-05-06T16:03:30.000Z,19.01
2023-05-06T16:06:35.400Z,18.51
2023-05-06T16:09:39.448Z,18.04
2023-05-06T16:12:42.477Z,18.33
2023-05-06T16:15:51.221Z,18.57
2023-05-06T16:18:54.315Z,18.27
2023-05-06T16:21:57.410Z,18.19
2023-05-06T16:25:00.454Z,17.82
2023-05-06T16:28:07.156Z,17.87
2023-05-06T16:31:10.012Z,17.64
2023-05-06T16:34:13.119Z,17.85
2023-05-06T16:37:16.322Z,17.69
2023-05-06T16:40:23.445Z,17.77
2023-05-06T16:43:26.748Z,17.78
2023-05-06T16:46:29.815Z,17.80
2023-05-06T16:49:34.182Z,17.72
2023-05-06T16:52:37.221Z,17.65
2023-05-06T16:55:40.215Z,17.52
2023-05-06T16:58:43.153Z,17.47
2023-05-06T17:01:45.968Z,17.29
2023-05-06T17:04:48.924Z,17.23
2023-05-06T17:07:51.755Z,17.15
2023-05-06T17:10:54.585Z,17.07
2023-05-06T17:13:57.501Z,17.09
2023-05-06T17:17:03.422Z,17.00
2023-05-06T17:20:07.527Z,16.90
2023-05-06T17:23:10.319Z,16.80
2023-05-06T17:26:13.604Z,16.72
2023-05-06T17:29:16.472Z,16.62
2023-05-06T17:32:20.244Z,16.61
2023-05-06T17:35:23.047Z,16.60
2023-05-06T17:38:26.204Z,16.66
2023-05-06T17:41:29.319Z,16.65
2023-05-06T17:44:33.335Z,16.45
2023-05-06T17:47:38.478Z,16.38
2023-05-06T17:50:41.704Z,16.40
2023-05-06T17:53:44.692Z,16.29
2023-05-06T17:56:50.885Z,16.33
2023-05-06T17:59:53.906Z,16.24
2023-05-06T18:02:56.925Z,16.16
2023-05-06T18:06:00.399Z,16.09
2023-05-06T18:09:03.541Z,16.10
2023-05-06T18:12:07.010Z,15.93
2023-05-06T18:15:10.480Z,15.96
2023-05-06T18:18:13.529Z,15.85
2023-05-06T18:21:16.287Z,15.59
2023-05-06T18:24:19.291Z,15.52
2023-05-06T18:27:22.860Z,15.62
2023-05-06T18:30:26.274Z,15.71
2023-05-06T18:33:29.279Z,15.51
2023-05-06T18:36:32.490Z,15.33
2023-05-06T18:39:40.911Z,15.42
2023-05-06T18:42:43.757Z,15.43
2023-05-06T18:45:50.847Z,15.38
2023-05-06T18:48:56.299Z,15.33
2023-05-06T18:51:59.197Z,15.35
2023-05-06T18:55:04.698Z,15.35
2023-05-06T18:58:07.822Z,15.29
2023-05-06T19:01:11.714Z,15.33
2023-05-06T19:04:14.678Z,15.38
2023-05-06T19:07:17.661Z,15.37
2023-05-06T19:10:20.641Z,15.29
2023-05-06T19:13:23.961Z,15.28
2023-05-06T19:16:27.028Z,15.18
2023-05-06T19:19:29.904Z,15.10
2023-05-06T19:22:33.597Z,15.11
2023-05-06T19:25:38.027Z,14.93
2023-05-06T19:28:41.297Z,14.81
2023-05-06T19:31:44.694Z,14.67
2023-05-06T19:34:47.653Z,14.58
2023-05-06T19:37:56.110Z,14.59
2023-05-06T19:40:59.249Z,14.53
2023-05-06T19:44:02.284Z,14.41
2023-05-06T19:47:05.115Z,14.30
2023-05-06T19:50:09.097Z,14.44
2023-05-06T19:53:12.090Z,14.40
2023-05-06T19:56:17.779Z,14.32
2023-05-06T19:59:20.872Z,14.17
2023-05-06T20:02:24.114Z,14.14
2023-05-06T20:05:31.351Z,14.03
2023-05-06T20:08:35.330Z,13.94
2023-05-06T20:11:38.667Z,13.90
2023-05-06T20:14:42.045Z,13.86
2023-05-06T20:17:44.859Z,13.66
2023-05-06T20:20:47.613Z,13.68
2023-05-06T20:23:50.495Z,13.73
2023-05-06T20:26:53.169Z,13.58
2023-05-06T20:29:55.952Z,13.60
2023-05-06T20:32:59.282Z,13.59
2023-05-06T20:36:02.070Z,13.52
2023-05-06T20:39:05.195Z,13.56
2023-05-06T20:42:09.252Z,13.54
2023-05-06T20:45:13.592Z,13.53
2023-05-06T20:48:16.677Z,13.53
2023-05-06T20:51:19.636Z,13.41
2023-05-06T20:54:22.324Z,13.35
2023-05-06T20:57:25.188Z,13.33
2023-05-06T21:00:28.073Z,13.17
2023-05-06T21:03:31.464Z,13.03
2023-05-06T21:06:34.323Z,13.04
2023-05-06T21:09:38.592Z,13.12
2023-05-06T21:12:47.810Z,13.13
2023-05-06T21:15:50.793Z,13.10
2023-05-06T21:18:53.560Z,13.03
2023-05-06T21:21:57.009Z,13.06
2023-05-06T21:25:00.109Z,13.12
2023-05-06T21:28:07.046Z,13.05
2023-05-06T21:31:09.792Z,12.77
2023-05-06T21:34:12.616Z,13.01
2023-05-06T21:37:15.341Z,13.07
2023-05-06T21:40:18.479Z,13.12
2023-05-06T21:43:21.804Z,13.12
2023-05-06T21:46:24.646Z,13.07
2023-05-06T21:49:27.307Z,13.09
2023-05-06T21:52:30.304Z,13.07
2023-05-06T21:55:33.047Z,13.00
2023-05-06T21:58:36.349Z,12.93
2023-05-06T22:01:39.195Z,12.88
2023-05-06T22:04:42.444Z,12.80
2023-05-06T22:07:45.199Z,12.82
2023-05-06T22:10:47.920Z,12.88
2023-05-06T22:13:50.711Z,12.86
2023-05-06T22:16:53.502Z,12.86
2023-05-06T22:19:56.459Z,12.91
2023-05-06T22:23:00.156Z,12.93
2023-05-06T22:26:03.352Z,13.02
2023-05-06T22:29:06.258Z,13.11
2023-05-06T22:32:09.065Z,13.15
2023-05-06T22:35:12.057Z,13.21
2023-05-06T22:38:14.958Z,13.03
2023-05-06T22:41:18.490Z,12.87
2023-05-06T22:44:21.644Z,12.67
2023-05-06T22:47:24.464Z,12.64
2023-05-06T22:50:27.320Z,12.58
2023-05-06T22:53:30.212Z,12.55
2023-05-06T22:56:33.222Z,12.43
2023-05-06T22:59:36.134Z,12.44
2023-05-06T23:02:39.472Z,12.36
2023-05-06T23:05:42.443Z,12.38
2023-05-06T23:08:45.344Z,12.41
2023-05-06T23:11:48.080Z,12.47
2023-05-06T23:14:51.200Z,12.47
2023-05-06T23:17:54.204Z,12.38
2023-05-06T23:20:57.090Z,12.31
2023-05-06T23:23:59.742Z,12.14
2023-05-06T23:27:02.448Z,12.09
2023-05-06T23:30:06.072Z,12.09
2023-05-06T23:33:09.155Z,12.04
2023-05-06T23:36:12.040Z,11.94
2023-05-06T23:39:14.660Z,11.78
2023-05-06T23:42:17.316Z,11.72
2023-05-06T23:45:20.667Z,11.67
2023-05-06T23:48:23.467Z,11.60
2023-05-06T23:51:26.880Z,11.52
2023-05-06T23:54:30.049Z,11.56
2023-05-06T23:57:32.726Z,11.59
